Time;durP1;ratioP1;P1;durP2;ratioP2;P2;SDS_P1;SDS_P2;PMS_P1;PMS_P2;Temp;Humidity;BMP_temperature;BMP_pressure;BME280_temperature;BME280_humidity;BME280_pressure;Samples;Min_cycle;Max_cycle;Signal;HPM_P1;HPM_P2
2022/11/21 00:01:36;;;;;;;1.83;1.27;;;;;;;-0.90;100.00;97060.47;6218624;28;20231;-43
2022/11/21 00:04:38;;;;;;;1.80;1.40;;;;;;;-0.92;100.00;97057.09;6213052;28;20241;-44
2022/11/21 00:07:40;;;;;;;1.77;1.23;;;;;;;-0.96;100.00;97056.38;6218636;28;20239;-46
2022/11/21 00:10:42;;;;;;;1.20;1.10;;;;;;;-0.98;100.00;97047.81;6220153;28;20326;-46
2022/11/21 00:13:44;;;;;;;1.23;1.13;;;;;;;-1.01;100.00;97037.63;6219264;28;20346;-43
2022/11/21 00:16:46;;;;;;;1.97;1.10;;;;;;;-1.03;100.00;97033.41;6218462;28;20318;-43
2022/11/21 00:19:54;;;;;;;1.57;1.10;;;;;;;-1.06;100.00;97036.13;6219918;28;20236;-43
2022/11/21 00:22:56;;;;;;;1.63;1.23;;;;;;;-1.06;100.00;97031.81;6212522;28;20666;-43
2022/11/21 00:25:58;;;;;;;2.80;0.90;;;;;;;-1.06;100.00;97030.97;6220113;28;20264;-43
2022/11/21 00:29:00;;;;;;;1.13;1.00;;;;;;;-1.14;100.00;97033.91;6216884;28;20741;-43
2022/11/21 00:32:02;;;;;;;0.93;0.83;;;;;;;-1.17;100.00;97029.69;6220124;28;20297;-43
2022/11/21 00:35:05;;;;;;;1.20;1.10;;;;;;;-1.20;100.00;97026.41;6213056;28;20314;-42
2022/11/21 00:38:07;;;;;;;1.40;0.97;;;;;;;-1.26;100.00;97022.31;6219237;28;20603;-42
2022/11/21 00:41:09;;;;;;;2.57;0.90;;;;;;;-1.31;100.00;97023.44;6218303;28;20251;-42
2022/11/21 00:44:12;;;;;;;1.33;0.90;;;;;;;-1.32;100.00;97027.78;6218904;28;20231;-44
2022/11/21 00:47:14;;;;;;;1.00;0.90;;;;;;;-1.33;100.00;97020.94;6216457;28;20290;-43
2022/11/21 00:50:16;;;;;;;0.90;0.90;;;;;;;-1.36;100.00;97015.88;6218299;28;20684;-43
2022/11/21 00:53:18;;;;;;;2.60;0.90;;;;;;;-1.42;100.00;97005.81;6217647;28;20709;-43
2022/11/21 00:56:20;;;;;;;0.60;0.60;;;;;;;-1.48;100.00;96995.69;6216300;28;20681;-43
2022/11/21 00:59:22;;;;;;;0.97;0.90;;;;;;;-1.53;100.00;96995.06;6218865;28;20327;-43
2022/11/21 01:02:24;;;;;;;1.03;0.70;;;;;;;-1.58;100.00;96989.25;6217233;28;20716;-44
2022/11/21 01:05:26;;;;;;;1.93;0.93;;;;;;;-1.62;100.00;96998.06;6210594;28;20228;-43
2022/11/21 01:08:28;;;;;;;1.83;1.10;;;;;;;-1.64;100.00;96990.38;6217681;28;20590;-44
2022/11/21 01:11:31;;;;;;;3.47;1.00;;;;;;;-1.68;100.00;96993.97;6218772;28;20228;-43
2022/11/21 01:14:33;;;;;;;1.10;0.97;;;;;;;-1.68;100.00;96982.78;6219359;28;20785;-43
2022/11/21 01:17:35;;;;;;;1.63;0.83;;;;;;;-1.71;100.00;96981.19;6217906;28;20261;-42
2022/11/21 01:20:39;;;;;;;0.77;0.77;;;;;;;-1.75;100.00;96984.81;6216572;28;20334;-43
2022/11/21 01:23:42;;;;;;;1.03;0.60;;;;;;;-1.77;100.00;96990.94;6217902;28;20266;-43
2022/11/21 01:26:44;;;;;;;0.77;0.70;;;;;;;-1.78;100.00;96990.09;6215124;28;20264;-42
2022/11/21 01:29:46;;;;;;;0.63;0.63;;;;;;;-1.81;100.00;96982.50;6218194;28;20544;-42
2022/11/21 01:32:48;;;;;;;1.93;1.20;;;;;;;-1.82;100.00;96982.56;6215899;28;20239;-43
2022/11/21 01:35:51;;;;;;;0.70;0.70;;;;;;;-1.84;100.00;96985.19;6219340;28;20571;-43
2022/11/21 01:38:55;;;;;;;2.30;0.90;;;;;;;-1.86;100.00;96979.25;6215670;28;20245;-43
2022/11/21 01:41:57;;;;;;;1.00;0.70;;;;;;;-1.88;100.00;96978.47;6217675;28;20237;-43
2022/11/21 01:44:59;;;;;;;0.77;0.70;;;;;;;-1.91;100.00;96981.19;6216652;28;20270;-43
2022/11/21 01:48:01;;;;;;;1.40;0.80;;;;;;;-1.96;100.00;96983.97;6216486;28;20338;-42
2022/11/21 01:51:14;;;;;;;0.90;0.60;;;;;;;-1.98;100.00;96979.75;6218804;28;20349;-42
2022/11/21 01:54:23;;;;;;;1.40;0.97;;;;;;;-1.96;100.00;96971.03;6213085;28;20576;-42
2022/11/21 01:57:36;;;;;;;1.07;0.90;;;;;;;-1.97;100.00;96961.59;6217176;28;20228;-43
2022/11/21 02:00:41;;;;;;;0.70;0.70;;;;;;;-1.97;100.00;96955.59;6217298;28;20283;-43
2022/11/21 02:03:46;;;;;;;1.07;0.93;;;;;;;-1.99;100.00;96947.06;6215920;28;20224;-43
2022/11/21 02:06:48;;;;;;;1.97;0.70;;;;;;;-1.96;100.00;96940.03;6216976;28;20228;-43
2022/11/21 02:09:55;;;;;;;2.57;1.27;;;;;;;-1.93;100.00;96929.56;6217555;28;20231;-43
2022/11/21 02:12:58;;;;;;;0.93;0.77;;;;;;;-1.86;100.00;96924.94;6216438;28;20240;-43
2022/11/21 02:16:02;;;;;;;1.10;0.83;;;;;;;-1.89;100.00;96925.06;6215787;28;20232;-43
2022/11/21 02:19:08;;;;;;;1.23;0.90;;;;;;;-1.94;100.00;96906.34;6216970;28;20288;-43
2022/11/21 02:22:20;;;;;;;0.70;0.70;;;;;;;-1.96;100.00;96898.66;6210854;28;20232;-43
2022/11/21 02:25:28;;;;;;;1.43;0.60;;;;;;;-1.98;100.00;96900.47;6216028;28;20322;-42
2022/11/21 02:28:30;;;;;;;0.70;0.50;;;;;;;-2.01;100.00;96904.94;6211013;28;20658;-43
2022/11/21 02:31:32;;;;;;;0.73;0.73;;;;;;;-2.04;100.00;96890.41;6216734;28;20318;-43
2022/11/21 02:34:34;;;;;;;0.60;0.60;;;;;;;-2.06;100.00;96891.34;6215800;28;20318;-43
2022/11/21 02:37:36;;;;;;;1.93;0.80;;;;;;;-2.10;100.00;96895.00;6219410;28;20235;-43
2022/11/21 02:40:43;;;;;;;1.23;1.13;;;;;;;-2.14;100.00;96890.84;6217037;28;20254;-43
2022/11/21 02:43:54;;;;;;;2.30;0.97;;;;;;;-2.17;100.00;96884.06;6222545;28;20327;-43
2022/11/21 02:46:56;;;;;;;0.80;0.73;;;;;;;-2.20;100.00;96880.78;6220282;28;20346;-43
2022/11/21 02:50:12;;;;;;;0.97;0.90;;;;;;;-2.22;100.00;96883.44;6220520;28;20235;-43
2022/11/21 02:53:17;;;;;;;0.70;0.70;;;;;;;-2.23;100.00;96884.34;6219525;28;20224;-43
2022/11/21 02:56:19;;;;;;;1.40;0.73;;;;;;;-2.24;100.00;96883.50;6221322;28;20686;-43
2022/11/21 02:59:22;;;;;;;2.43;0.70;;;;;;;-2.21;100.00;96881.69;6219584;28;20235;-43
2022/11/21 03:02:24;;;;;;;0.50;0.50;;;;;;;-2.15;100.00;96881.41;6219063;28;20230;-43
2022/11/21 03:05:27;;;;;;;0.60;0.50;;;;;;;-2.08;100.00;96875.06;6219423;28;20297;-43
2022/11/21 03:08:29;;;;;;;1.00;0.70;;;;;;;-2.03;100.00;96886.91;6220097;28;20741;-43
2022/11/21 03:11:31;;;;;;;0.67;0.67;;;;;;;-1.96;100.00;96887.47;6217023;28;20248;-42
2022/11/21 03:14:34;;;;;;;0.87;0.60;;;;;;;-1.86;100.00;96889.59;6213052;28;20240;-43
2022/11/21 03:17:36;;;;;;;0.70;0.70;;;;;;;-1.74;100.00;96893.38;6218553;28;20228;-42
2022/11/21 03:20:39;;;;;;;3.20;0.73;;;;;;;-1.67;100.00;96889.63;6221314;28;20266;-43
2022/11/21 03:23:41;;;;;;;0.77;0.60;;;;;;;-1.56;100.00;96892.56;6215486;28;20744;-44
2022/11/21 03:26:43;;;;;;;0.70;0.70;;;;;;;-1.45;100.00;96886.06;6221651;28;20665;-43
2022/11/21 03:29:45;;;;;;;1.50;0.80;;;;;;;-1.37;100.00;96884.81;6219427;28;20240;-43
2022/11/21 03:32:47;;;;;;;1.10;0.90;;;;;;;-1.31;100.00;96879.38;6222221;28;20732;-43
2022/11/21 03:35:49;;;;;;;1.10;0.83;;;;;;;-1.22;100.00;96878.09;6217273;28;20239;-43
2022/11/21 03:38:53;;;;;;;0.50;0.50;;;;;;;-1.17;100.00;96879.53;6213390;28;20331;-42
2022/11/21 03:41:56;;;;;;;1.87;0.77;;;;;;;-1.10;100.00;96872.34;6217285;28;20371;-43
2022/11/21 03:44:58;;;;;;;0.90;0.70;;;;;;;-1.03;100.00;96883.25;6218522;28;20314;-43
2022/11/21 03:48:00;;;;;;;1.10;1.00;;;;;;;-0.98;100.00;96892.47;6220728;28;20286;-43
2022/11/21 03:51:02;;;;;;;2.00;0.80;;;;;;;-0.96;100.00;96884.63;6218284;28;20243;-42
2022/11/21 03:54:05;;;;;;;1.87;0.70;;;;;;;-0.95;100.00;96879.38;6218133;28;20337;-43
2022/11/21 03:57:07;;;;;;;3.37;0.80;;;;;;;-0.89;100.00;96886.84;6217735;28;20229;-42
2022/11/21 04:00:09;;;;;;;1.53;0.80;;;;;;;-0.85;100.00;96893.56;6221215;28;20743;-43
2022/11/21 04:03:12;;;;;;;0.70;0.70;;;;;;;-0.80;100.00;96885.59;6219925;28;20228;-43
2022/11/21 04:06:17;;;;;;;0.73;0.67;;;;;;;-0.75;100.00;96883.59;6220033;28;20298;-43
2022/11/21 04:09:19;;;;;;;1.07;0.80;;;;;;;-0.68;100.00;96873.78;6218447;28;20705;-43
2022/11/21 04:12:21;;;;;;;1.23;0.77;;;;;;;-0.64;100.00;96883.94;6218432;28;20235;-43
2022/11/21 04:15:23;;;;;;;0.60;0.60;;;;;;;-0.62;100.00;96892.47;6218022;28;20318;-43
2022/11/21 04:18:25;;;;;;;0.80;0.80;;;;;;;-0.59;100.00;96884.53;6220590;28;20228;-43
2022/11/21 04:21:27;;;;;;;0.70;0.70;;;;;;;-0.55;100.00;96886.06;6221410;28;20639;-43
2022/11/21 04:24:29;;;;;;;0.73;0.70;;;;;;;-0.48;100.00;96892.63;6215426;28;20250;-43
2022/11/21 04:27:32;;;;;;;1.43;0.90;;;;;;;-0.42;100.00;96886.31;6216281;28;20231;-42
2022/11/21 04:30:34;;;;;;;0.93;0.80;;;;;;;-0.35;100.00;96903.22;6217102;28;20259;-43
2022/11/21 04:33:39;;;;;;;1.20;1.00;;;;;;;-0.27;100.00;96901.09;6220601;28;20318;-44
2022/11/21 04:36:41;;;;;;;1.03;0.87;;;;;;;-0.15;100.00;96921.22;6218741;28;20260;-43
2022/11/21 04:39:43;;;;;;;1.23;0.93;;;;;;;-0.07;100.00;96918.25;6218310;28;20258;-43
2022/11/21 04:42:47;;;;;;;3.40;1.40;;;;;;;0.05;100.00;96899.47;6218970;28;20226;-43
2022/11/21 04:45:49;;;;;;;4.07;3.53;;;;;;;0.71;100.00;96902.03;6217625;28;20247;-43
2022/11/21 04:48:51;;;;;;;8.57;3.47;;;;;;;0.92;100.00;96892.25;6216009;28;20318;-43
2022/11/21 04:51:53;;;;;;;2.97;2.47;;;;;;;1.05;100.00;96891.50;6223821;28;20240;-43
2022/11/21 04:54:55;;;;;;;3.43;2.90;;;;;;;1.09;100.00;96889.59;6216191;28;20225;-42
2022/11/21 04:57:58;;;;;;;3.90;2.70;;;;;;;1.12;100.00;96884.19;6215250;28;20277;-44
2022/11/21 05:01:07;;;;;;;2.07;1.87;;;;;;;1.15;100.00;96881.44;6214080;28;20701;-43
2022/11/21 05:04:10;;;;;;;2.80;2.33;;;;;;;1.17;100.00;96871.81;6216374;28;20229;-43
2022/11/21 05:07:12;;;;;;;3.17;2.73;;;;;;;1.24;100.00;96875.72;6218858;28;20633;-42
2022/11/21 05:10:14;;;;;;;2.57;2.30;;;;;;;1.29;100.00;96865.94;6217591;28;20238;-42
2022/11/21 05:13:20;;;;;;;2.77;2.57;;;;;;;1.30;100.00;96869.38;6217701;28;20290;-44
2022/11/21 05:16:22;;;;;;;2.57;2.20;;;;;;;1.25;100.00;96864.41;6216495;28;20540;-42
2022/11/21 05:19:24;;;;;;;2.30;2.10;;;;;;;1.16;100.00;96867.53;6218470;28;20280;-43
2022/11/21 05:22:26;;;;;;;3.67;2.00;;;;;;;1.11;100.00;96857.38;6215091;28;20228;-42
2022/11/21 05:25:28;;;;;;;3.10;1.70;;;;;;;1.08;100.00;96854.13;6216228;28;20255;-43
2022/11/21 05:28:30;;;;;;;2.23;2.03;;;;;;;1.04;100.00;96857.81;6217615;28;20242;-42
2022/11/21 05:31:32;;;;;;;2.77;1.90;;;;;;;1.04;100.00;96852.63;6213550;28;20334;-43
2022/11/21 05:34:34;;;;;;;4.63;2.13;;;;;;;1.02;100.00;96862.25;6215739;28;20228;-42
2022/11/21 05:37:37;;;;;;;2.40;2.20;;;;;;;0.98;100.00;96860.75;6217634;28;20250;-42
2022/11/21 05:40:39;;;;;;;2.50;1.97;;;;;;;0.95;100.00;96863.53;6217332;28;20247;-42
2022/11/21 05:43:47;;;;;;;2.83;2.23;;;;;;;0.96;100.00;96871.22;6216044;28;20677;-43
2022/11/21 05:46:49;;;;;;;2.20;2.00;;;;;;;0.95;100.00;96863.53;6216806;28;20647;-42
2022/11/21 05:49:51;;;;;;;2.50;1.90;;;;;;;0.91;100.00;96859.41;6215788;28;20244;-42
2022/11/21 05:52:53;;;;;;;2.20;1.70;;;;;;;0.87;100.00;96863.94;6216510;28;20224;-42
2022/11/21 05:55:55;;;;;;;2.37;1.90;;;;;;;0.82;100.00;96863.34;6218561;28;20313;-43
2022/11/21 05:58:58;;;;;;;2.13;1.40;;;;;;;0.75;100.00;96864.63;6217829;28;20234;-43
2022/11/21 06:05:20;;;;;;;1.93;1.73;;;;;;;0.72;100.00;96856.97;6215635;28;20233;-43
2022/11/21 06:08:22;;;;;;;1.87;1.67;;;;;;;0.74;100.00;96855.16;6216547;28;20315;-42
2022/11/21 06:11:25;;;;;;;2.40;1.50;;;;;;;0.70;100.00;96853.63;6211278;28;20235;-42
2022/11/21 06:14:27;;;;;;;1.63;1.50;;;;;;;0.66;100.00;96850.38;6220982;28;20234;-42
2022/11/21 06:17:29;;;;;;;3.53;1.97;;;;;;;0.66;100.00;96854.72;6220615;28;20674;-42
2022/11/21 06:20:31;;;;;;;1.40;1.30;;;;;;;0.64;100.00;96839.22;6222630;28;20277;-42
2022/11/21 06:23:35;;;;;;;1.90;1.60;;;;;;;0.65;100.00;96843.50;6216467;28;20307;-44
2022/11/21 06:26:37;;;;;;;1.37;1.27;;;;;;;0.66;100.00;96841.75;6220265;28;20619;-43
2022/11/21 06:29:39;;;;;;;1.43;1.30;;;;;;;0.66;100.00;96839.16;6220817;28;20228;-47
2022/11/21 06:32:41;;;;;;;2.03;1.43;;;;;;;0.70;100.00;96843.25;6221303;28;20307;-42
2022/11/21 06:35:43;;;;;;;3.07;1.47;;;;;;;0.73;100.00;96846.50;6221599;28;20240;-43
2022/11/21 06:38:46;;;;;;;2.50;1.50;;;;;;;0.76;100.00;96850.72;6221139;28;20283;-42
2022/11/21 06:41:49;;;;;;;1.47;1.10;;;;;;;0.78;100.00;96851.47;6222214;28;20263;-42
2022/11/21 06:44:52;;;;;;;2.20;1.27;;;;;;;0.79;100.00;96855.75;6216188;28;20596;-43
2022/11/21 06:47:54;;;;;;;2.00;1.80;;;;;;;0.82;100.00;96857.31;6219235;28;20598;-42
2022/11/21 06:50:57;;;;;;;5.33;3.67;;;;;;;0.85;100.00;96854.56;6220615;28;20240;-44
2022/11/21 06:53:59;;;;;;;59.13;33.03;;;;;;;0.86;100.00;96843.25;6219102;28;20232;-42
2022/11/21 06:57:02;;;;;;;24.23;14.00;;;;;;;0.92;100.00;96832.50;6218925;28;20319;-42
2022/11/21 07:00:05;;;;;;;20.87;11.33;;;;;;;0.97;100.00;96839.16;6224866;28;20278;-43
2022/11/21 07:03:07;;;;;;;4.07;2.73;;;;;;;0.98;100.00;96845.19;6221262;28;20213;-42
2022/11/21 07:06:09;;;;;;;7.70;5.00;;;;;;;1.05;100.00;96843.91;6221389;28;20684;-42
2022/11/21 07:09:11;;;;;;;8.50;6.10;;;;;;;1.08;100.00;96846.34;6221171;28;20326;-43
2022/11/21 07:16:01;;;;;;;3.67;3.33;;;;;;;1.27;100.00;96841.78;6218423;28;20239;-44
2022/11/21 07:19:03;;;;;;;4.23;3.53;;;;;;;1.34;100.00;96834.47;6222064;28;20761;-43
2022/11/21 07:22:07;;;;;;;2.30;2.00;;;;;;;1.43;100.00;96826.13;6219089;28;20244;-42
2022/11/21 07:25:09;;;;;;;3.70;3.27;;;;;;;1.47;100.00;96841.47;6217939;28;20237;-42
2022/11/21 07:28:11;;;;;;;5.63;4.47;;;;;;;1.55;100.00;96848.00;6219124;28;20260;-42
2022/11/21 07:31:13;;;;;;;4.47;3.60;;;;;;;1.64;100.00;96847.47;6220013;28;20291;-43
2022/11/21 07:34:15;;;;;;;2.70;2.33;;;;;;;1.72;100.00;96847.84;6215872;28;20276;-43
2022/11/21 07:37:17;;;;;;;4.27;2.97;;;;;;;1.79;100.00;96854.38;6213805;28;20590;-43
2022/11/21 07:40:20;;;;;;;5.70;4.17;;;;;;;1.87;100.00;96841.75;6219359;28;20234;-42
2022/11/21 07:43:22;;;;;;;4.10;2.63;;;;;;;1.99;100.00;96842.78;6219975;28;20566;-43
2022/11/21 07:46:24;;;;;;;4.23;2.20;;;;;;;2.08;100.00;96843.09;6219850;28;20573;-43
2022/11/21 07:49:27;;;;;;;2.60;2.07;;;;;;;2.14;100.00;96847.91;6217522;28;20274;-43
2022/11/21 07:52:29;;;;;;;5.33;1.70;;;;;;;2.25;100.00;96843.81;6217480;28;20229;-43
2022/11/21 07:55:32;;;;;;;2.73;1.63;;;;;;;2.37;100.00;96836.13;6218269;28;20230;-43
2022/11/21 07:58:41;;;;;;;2.67;2.30;;;;;;;2.53;100.00;96830.78;6224096;28;20241;-43
2022/11/21 08:01:43;;;;;;;2.20;2.00;;;;;;;2.66;100.00;96831.72;6223861;28;20246;-43
2022/11/21 08:04:47;;;;;;;4.03;2.00;;;;;;;2.78;100.00;96828.34;6220160;28;20234;-43
2022/11/21 08:07:49;;;;;;;1.80;1.70;;;;;;;2.91;100.00;96830.97;6219363;28;20250;-43
2022/11/21 08:10:51;;;;;;;3.33;1.30;;;;;;;3.03;100.00;96822.41;6219573;28;20254;-43
2022/11/21 08:13:53;;;;;;;3.17;1.23;;;;;;;3.18;100.00;96828.41;6218295;28;20228;-43
2022/11/21 08:16:55;;;;;;;1.07;1.00;;;;;;;3.30;100.00;96828.44;6219120;28;20323;-43
2022/11/21 08:20:01;;;;;;;0.80;0.80;;;;;;;3.44;100.00;96821.50;6218748;28;20300;-43
2022/11/21 08:23:04;;;;;;;1.47;1.00;;;;;;;3.55;100.00;96822.47;6214866;28;20309;-42
2022/11/21 08:26:09;;;;;;;1.33;0.90;;;;;;;3.68;100.00;96825.09;6213281;28;20231;-43
2022/11/21 08:29:14;;;;;;;1.87;1.10;;;;;;;3.79;100.00;96829.59;6213525;28;20658;-42
2022/11/21 08:32:16;;;;;;;0.90;0.60;;;;;;;3.87;100.00;96825.53;6219703;28;20314;-42
2022/11/21 08:35:18;;;;;;;0.80;0.80;;;;;;;3.95;100.00;96828.47;6215318;28;20326;-43
2022/11/21 08:38:20;;;;;;;1.67;0.67;;;;;;;4.07;100.00;96840.69;6212055;28;20596;-43
2022/11/21 08:44:42;;;;;;;0.77;0.57;;;;;;;4.25;100.00;96827.31;6213088;28;20728;-43
2022/11/21 08:47:45;;;;;;;2.50;0.60;;;;;;;4.31;100.00;96830.31;6219619;28;20228;-44
2022/11/21 08:50:47;;;;;;;1.20;0.80;;;;;;;4.40;100.00;96823.63;6216714;28;20706;-42
2022/11/21 08:53:49;;;;;;;0.90;0.57;;;;;;;4.51;100.00;96817.66;6218137;28;20263;-42
2022/11/21 08:56:52;;;;;;;0.63;0.60;;;;;;;4.60;100.00;96823.06;6216010;28;20227;-43
2022/11/21 08:59:54;;;;;;;0.70;0.70;;;;;;;4.64;100.00;96813.25;6219265;28;20236;-43
2022/11/21 09:02:56;;;;;;;2.07;0.87;;;;;;;4.70;100.00;96818.03;6216570;28;20244;-43
2022/11/21 09:05:58;;;;;;;1.40;1.00;;;;;;;4.77;100.00;96821.91;6217592;28;20237;-42
2022/11/21 09:09:03;;;;;;;1.13;0.80;;;;;;;4.84;100.00;96828.34;6217131;28;20228;-43
2022/11/21 09:12:05;;;;;;;2.23;0.80;;;;;;;4.90;100.00;96827.06;6218104;28;20719;-44
2022/11/21 09:18:31;;;;;;;1.07;0.80;;;;;;;5.11;100.00;96820.31;6208479;28;20231;-44
2022/11/21 09:21:33;;;;;;;1.27;0.80;;;;;;;5.20;99.97;96815.25;6216264;28;20232;-43
2022/11/21 09:24:36;;;;;;;1.43;0.60;;;;;;;5.34;98.98;96816.88;6214167;28;20237;-43
2022/11/21 09:27:38;;;;;;;1.60;0.87;;;;;;;5.50;96.96;96820.03;6214357;28;20322;-43
2022/11/21 09:30:41;;;;;;;1.43;0.90;;;;;;;5.66;95.92;96801.41;6217804;28;20323;-43
2022/11/21 09:33:43;;;;;;;1.20;0.90;;;;;;;5.82;95.90;96814.19;6217143;28;20230;-43
2022/11/21 09:36:45;;;;;;;2.70;0.70;;;;;;;5.88;95.89;96817.22;6218464;28;20739;-43
2022/11/21 09:39:47;;;;;;;0.57;0.50;;;;;;;5.96;94.25;96803.53;6215054;28;20290;-43
2022/11/21 09:42:58;;;;;;;1.23;0.67;;;;;;;6.13;91.32;96804.88;6219364;28;20346;-43
2022/11/21 09:46:14;;;;;;;2.00;0.70;;;;;;;6.28;90.66;96801.91;6216344;28;20366;-44
2022/11/21 09:49:16;;;;;;;1.93;0.70;;;;;;;6.44;90.16;96806.78;6215240;28;20235;-43
2022/11/21 09:52:23;;;;;;;4.43;0.80;;;;;;;6.55;88.17;96800.72;6215239;28;20607;-43
2022/11/21 09:55:34;;;;;;;1.10;0.57;;;;;;;6.66;85.18;96793.69;6216477;28;20238;-43
2022/11/21 09:58:46;;;;;;;1.27;0.73;;;;;;;6.70;86.24;96789.00;6215265;28;20228;-43
2022/11/21 10:01:48;;;;;;;1.87;0.67;;;;;;;6.72;82.69;96781.88;6219580;28;20610;-42
2022/11/21 10:04:51;;;;;;;1.67;0.70;;;;;;;6.82;81.64;96784.59;6212575;28;20298;-45
2022/11/21 10:08:00;;;;;;;2.40;0.60;;;;;;;6.96;79.55;96769.44;6211492;28;20231;-44
2022/11/21 10:11:16;;;;;;;3.37;0.73;;;;;;;7.09;78.51;96774.50;6211910;28;20329;-44
2022/11/21 10:14:33;;;;;;;1.33;0.70;;;;;;;7.27;78.51;96773.03;6211169;28;20652;-44
2022/11/21 10:17:43;;;;;;;1.00;0.73;;;;;;;7.39;77.26;96763.28;6213175;28;20240;-43
2022/11/21 10:21:14;;;;;;;2.57;0.60;;;;;;;7.46;76.50;96771.53;6214658;28;20237;-44
2022/11/21 10:24:42;;;;;;;2.20;0.60;;;;;;;7.54;75.84;96763.84;6208266;28;20296;-43
2022/11/21 10:28:07;;;;;;;1.07;0.50;;;;;;;7.65;74.26;96777.75;6216214;28;20231;-44
2022/11/21 10:31:13;;;;;;;0.60;0.40;;;;;;;7.66;73.09;96768.09;6212554;28;20242;-44
2022/11/21 10:34:20;;;;;;;4.43;0.53;;;;;;;7.46;72.13;96767.09;6216854;28;20234;-44
2022/11/21 10:37:45;;;;;;;0.50;0.37;;;;;;;7.33;70.92;96769.91;6213319;28;20276;-43
2022/11/21 10:41:04;;;;;;;0.97;0.50;;;;;;;7.29;71.58;96765.00;6214985;28;20598;-43
2022/11/21 10:47:44;;;;;;;2.13;0.50;;;;;;;7.36;71.55;96769.66;6208940;28;20270;-44
2022/11/21 10:50:55;;;;;;;0.53;0.40;;;;;;;7.46;72.26;96774.97;6218203;28;20398;-44
2022/11/21 10:57:46;;;;;;;0.60;0.40;;;;;;;7.35;70.81;96773.22;6215253;28;20237;-44
2022/11/21 11:00:56;;;;;;;1.57;0.60;;;;;;;7.34;70.32;96765.47;6218390;28;20310;-44
2022/11/21 11:04:08;;;;;;;1.43;0.50;;;;;;;7.34;69.41;96760.22;6212724;28;20236;-43
2022/11/21 11:07:30;;;;;;;2.40;0.50;;;;;;;7.32;71.05;96754.28;6219546;28;20237;-43
2022/11/21 11:10:44;;;;;;;0.53;0.40;;;;;;;7.30;69.61;96749.16;6222148;28;20239;-43
2022/11/21 11:13:56;;;;;;;1.00;0.30;;;;;;;7.36;70.49;96746.03;6218784;28;20243;-43
2022/11/21 11:16:59;;;;;;;1.17;0.53;;;;;;;7.39;70.05;96752.81;6219027;28;20316;-44
2022/11/21 11:20:26;;;;;;;1.47;0.47;;;;;;;7.38;70.68;96751.16;6219900;28;20254;-43
2022/11/21 11:23:28;;;;;;;2.00;0.50;;;;;;;7.36;70.55;96758.31;6217974;28;20324;-44
2022/11/21 11:26:30;;;;;;;0.77;0.40;;;;;;;7.35;70.74;96754.03;6221842;28;20257;-43
2022/11/21 11:29:48;;;;;;;1.40;0.43;;;;;;;7.26;70.94;96755.63;6217538;28;20268;-43
2022/11/21 11:32:50;;;;;;;0.73;0.50;;;;;;;7.15;69.75;96760.91;6220851;28;20248;-44
2022/11/21 11:35:54;;;;;;;0.93;0.40;;;;;;;7.14;70.81;96755.78;6219111;28;20238;-44
2022/11/21 11:39:04;;;;;;;0.83;0.30;;;;;;;7.16;72.03;96753.88;6220096;28;20718;-43
2022/11/21 11:50:09;;;;;;;0.37;0.30;;;;;;;7.09;72.71;96747.47;6214509;28;20235;-45
2022/11/21 11:53:15;;;;;;;1.70;0.50;;;;;;;7.04;72.66;96761.78;6216624;28;20277;-44
2022/11/21 11:56:27;;;;;;;0.30;0.30;;;;;;;6.90;72.04;96748.09;6220761;28;20230;-44
2022/11/21 11:59:58;;;;;;;0.57;0.50;;;;;;;6.81;72.56;96754.06;6216891;28;20241;-44
2022/11/21 12:03:13;;;;;;;1.20;0.40;;;;;;;6.72;71.65;96760.06;6219913;28;20244;-44
2022/11/21 12:06:21;;;;;;;0.50;0.40;;;;;;;6.68;72.83;96753.41;6218497;28;20231;-44
2022/11/21 12:09:49;;;;;;;0.53;0.50;;;;;;;6.65;72.10;96759.72;6216246;28;20259;-43
2022/11/21 12:13:05;;;;;;;0.50;0.30;;;;;;;6.69;71.65;96749.84;6214541;28;20225;-44
2022/11/21 12:16:13;;;;;;;1.23;0.30;;;;;;;6.69;71.77;96752.47;6218319;28;20282;-43
2022/11/21 12:19:17;;;;;;;0.33;0.30;;;;;;;6.74;72.05;96748.50;6218094;28;20232;-44
2022/11/21 12:22:19;;;;;;;0.37;0.23;;;;;;;6.83;72.84;96763.50;6218684;28;20274;-44
2022/11/21 12:25:31;;;;;;;0.40;0.40;;;;;;;6.83;71.47;96760.03;6208661;28;20246;-44
2022/11/21 12:28:54;;;;;;;0.30;0.30;;;;;;;6.78;71.70;96759.59;6214002;28;20636;-43
2022/11/21 12:32:23;;;;;;;0.93;0.30;;;;;;;6.75;72.66;96762.44;6217391;28;20651;-43
2022/11/21 12:35:52;;;;;;;2.03;0.53;;;;;;;6.64;73.07;96761.50;6214448;28;20224;-45
2022/11/21 12:39:27;;;;;;;0.30;0.30;;;;;;;6.53;72.39;96758.91;6212828;28;20335;-44
2022/11/21 12:42:50;;;;;;;0.73;0.40;;;;;;;6.53;72.75;96760.69;6208028;28;20316;-45
2022/11/21 12:46:12;;;;;;;0.80;0.40;;;;;;;6.57;72.60;96764.75;6213853;28;20240;-44
2022/11/21 12:57:04;;;;;;;0.20;0.20;;;;;;;6.56;72.85;96773.56;6212569;28;20236;-43
2022/11/21 13:00:12;;;;;;;0.20;0.20;;;;;;;6.53;73.47;96774.63;6216693;28;20239;-44
2022/11/21 13:03:38;;;;;;;0.60;0.23;;;;;;;6.51;74.33;96773.06;6218294;28;20306;-44
2022/11/21 13:06:43;;;;;;;1.73;0.40;;;;;;;6.48;73.65;96765.47;6213629;28;20231;-44
2022/11/21 13:09:50;;;;;;;1.50;0.40;;;;;;;6.42;72.72;96768.56;6212107;28;20243;-44
2022/11/21 13:13:26;;;;;;;1.17;0.40;;;;;;;6.38;72.82;96754.88;6213814;28;20316;-43
2022/11/21 13:16:38;;;;;;;0.97;0.50;;;;;;;6.37;72.68;96749.75;6213663;28;20227;-44
2022/11/21 13:20:12;;;;;;;0.43;0.37;;;;;;;6.33;72.82;96758.78;6214505;28;20229;-44
2022/11/21 13:23:41;;;;;;;0.47;0.40;;;;;;;6.29;73.25;96758.19;6211867;28;20338;-44
2022/11/21 13:26:43;;;;;;;1.50;0.40;;;;;;;6.26;73.33;96758.44;6216825;28;20231;-43
2022/11/21 13:30:06;;;;;;;1.17;0.37;;;;;;;6.27;72.71;96760.94;6215783;28;21206;-43
2022/11/21 13:33:10;;;;;;;2.10;0.30;;;;;;;6.28;71.83;96756.53;6216242;28;20316;-44
2022/11/21 13:36:37;;;;;;;0.83;0.40;;;;;;;6.26;72.16;96748.81;6216145;28;20247;-43
2022/11/21 13:39:40;;;;;;;1.30;0.53;;;;;;;6.27;71.93;96749.63;6213473;28;20619;-44
2022/11/21 13:43:11;;;;;;;2.53;0.40;;;;;;;6.29;71.94;96755.56;6220256;28;20295;-44
2022/11/21 13:46:59;;;;;;;0.50;0.40;;;;;;;6.27;72.46;96760.13;6214772;28;20330;-44
2022/11/21 13:50:08;;;;;;;0.33;0.30;;;;;;;6.29;72.66;96771.28;6212292;28;20243;-44
2022/11/21 13:53:33;;;;;;;1.63;0.60;;;;;;;6.38;71.79;96770.59;6211115;28;20241;-43
2022/11/21 13:57:09;;;;;;;0.50;0.40;;;;;;;6.41;71.83;96765.09;6213211;28;20239;-44
2022/11/21 14:00:28;;;;;;;1.00;0.50;;;;;;;6.41;72.18;96764.25;6215300;28;20252;-43
2022/11/21 14:04:02;;;;;;;1.67;0.60;;;;;;;6.38;71.20;96773.22;6217069;28;20702;-44
2022/11/21 14:07:25;;;;;;;0.60;0.40;;;;;;;6.33;72.06;96764.03;6215547;28;20334;-43
2022/11/21 14:10:32;;;;;;;0.30;0.30;;;;;;;6.25;72.19;96773.31;6214807;28;20224;-44
2022/11/21 14:13:37;;;;;;;0.73;0.50;;;;;;;6.19;72.46;96762.47;6217228;28;20242;-44
2022/11/21 14:16:47;;;;;;;1.03;0.50;;;;;;;6.13;74.03;96766.41;6216754;28;20248;-44
2022/11/21 14:19:53;;;;;;;0.53;0.30;;;;;;;6.03;75.56;96768.06;6211838;28;20301;-44
2022/11/21 14:23:20;;;;;;;2.73;0.40;;;;;;;6.00;76.54;96770.06;6210346;28;20239;-43
2022/11/21 14:26:24;;;;;;;0.90;0.33;;;;;;;5.92;77.38;96754.97;6216601;28;20246;-43
2022/11/21 14:29:40;;;;;;;0.47;0.40;;;;;;;5.80;77.95;96761.94;6215683;28;20283;-45
2022/11/21 14:32:42;;;;;;;2.33;0.80;;;;;;;5.72;77.85;96764.28;6216960;28;20236;-44
2022/11/21 14:36:15;;;;;;;0.50;0.30;;;;;;;5.52;79.21;96757.09;6220232;28;20248;-46
2022/11/21 14:39:19;;;;;;;1.67;0.53;;;;;;;5.33;80.23;96756.81;6215700;28;20702;-44
2022/11/21 14:42:39;;;;;;;1.93;0.40;;;;;;;5.14;80.16;96754.72;6220511;28;20235;-44
2022/11/21 14:45:48;;;;;;;0.40;0.33;;;;;;;5.08;79.52;96757.78;6219315;28;20238;-44
2022/11/21 14:48:53;;;;;;;1.37;0.33;;;;;;;4.97;79.28;96758.56;6220623;28;20276;-44
2022/11/21 14:52:01;;;;;;;0.50;0.40;;;;;;;4.87;80.10;96762.81;6199477;28;20241;-44
2022/11/21 14:55:06;;;;;;;0.40;0.40;;;;;;;4.70;80.69;96764.00;6216551;28;20269;-44
2022/11/21 14:58:28;;;;;;;0.30;0.30;;;;;;;4.53;80.76;96766.13;6218677;28;20257;-44
2022/11/21 15:01:32;;;;;;;1.80;0.50;;;;;;;4.24;82.11;96763.81;6222878;28;20585;-45
2022/11/21 15:04:35;;;;;;;0.53;0.40;;;;;;;4.04;82.67;96759.97;6215795;28;20243;-44
2022/11/21 15:07:43;;;;;;;0.90;0.40;;;;;;;3.89;83.72;96758.41;6221074;28;20289;-43
2022/11/21 15:10:45;;;;;;;0.47;0.40;;;;;;;3.62;84.26;96766.31;6221888;28;20349;-44
2022/11/21 15:13:52;;;;;;;2.23;0.67;;;;;;;3.40;85.43;96771.28;6220747;28;20249;-44
2022/11/21 15:17:20;;;;;;;1.07;0.50;;;;;;;3.16;86.21;96765.09;6215721;28;20283;-44